sensor_id;sensor_type;location;lat;lon;timestamp;pressure;altitude;pressure_sealevel;temperature;humidity
56568;BME280;42456;49.956;20.004;2022-11-11T00:01:49;99752.07;;;3.85;85.78
56568;BME280;42456;49.956;20.004;2022-11-11T00:04:15;99751.26;;;3.85;85.79
56568;BME280;42456;49.956;20.004;2022-11-11T00:06:42;99759.22;;;3.82;85.82
56568;BME280;42456;49.956;20.004;2022-11-11T00:09:09;99761.88;;;3.82;85.84
56568;BME280;42456;49.956;20.004;2022-11-11T00:11:36;99771.98;;;3.83;85.87
56568;BME280;42456;49.956;20.004;2022-11-11T00:14:02;99769.05;;;3.82;85.90
56568;BME280;42456;49.956;20.004;2022-11-11T00:16:29;99771.71;;;3.82;85.97
56568;BME280;42456;49.956;20.004;2022-11-11T00:18:57;99781.30;;;3.83;86.05
56568;BME280;42456;49.956;20.004;2022-11-11T00:21:36;99776.79;;;3.83;86.19
56568;BME280;42456;49.956;20.004;2022-11-11T00:24:21;99777.35;;;3.85;86.36
56568;BME280;42456;49.956;20.004;2022-11-11T00:27:07;99784.05;;;3.90;86.51
56568;BME280;42456;49.956;20.004;2022-11-11T00:29:34;99780.10;;;3.93;86.63
56568;BME280;42456;49.956;20.004;2022-11-11T00:32:00;99790.27;;;3.99;86.62
56568;BME280;42456;49.956;20.004;2022-11-11T00:34:40;99785.22;;;4.00;86.50
56568;BME280;42456;49.956;20.004;2022-11-11T00:37:08;99790.02;;;4.00;86.42
56568;BME280;42456;49.956;20.004;2022-11-11T00:39:35;99790.54;;;4.00;86.39
56568;BME280;42456;49.956;20.004;2022-11-11T00:42:01;99790.52;;;3.97;86.26
56568;BME280;42456;49.956;20.004;2022-11-11T00:44:27;99787.02;;;3.94;86.21
56568;BME280;42456;49.956;20.004;2022-11-11T00:46:54;99792.59;;;3.93;86.22
56568;BME280;42456;49.956;20.004;2022-11-11T00:49:34;99790.18;;;3.91;86.29
56568;BME280;42456;49.956;20.004;2022-11-11T00:52:14;99789.37;;;3.90;86.46
56568;BME280;42456;49.956;20.004;2022-11-11T00:54:40;99792.08;;;3.93;86.49
56568;BME280;42456;49.956;20.004;2022-11-11T00:57:07;99788.88;;;3.93;86.40
56568;BME280;42456;49.956;20.004;2022-11-11T00:59:33;99781.95;;;3.93;86.39
56568;BME280;42456;49.956;20.004;2022-11-11T01:01:59;99791.83;;;3.95;86.46
56568;BME280;42456;49.956;20.004;2022-11-11T01:04:26;99779.31;;;3.95;86.48
56568;BME280;42456;49.956;20.004;2022-11-11T01:06:52;99776.15;;;3.98;86.56
56568;BME280;42456;49.956;20.004;2022-11-11T01:09:18;99774.31;;;4.01;86.60
56568;BME280;42456;49.956;20.004;2022-11-11T01:11:45;99766.38;;;4.04;86.57
56568;BME280;42456;49.956;20.004;2022-11-11T01:14:11;99772.78;;;4.05;86.43
56568;BME280;42456;49.956;20.004;2022-11-11T01:16:37;99773.82;;;4.04;86.28
56568;BME280;42456;49.956;20.004;2022-11-11T01:19:04;99767.15;;;4.02;86.19
56568;BME280;42456;49.956;20.004;2022-11-11T01:21:30;99770.04;;;3.98;86.18
56568;BME280;42456;49.956;20.004;2022-11-11T01:23:56;99768.14;;;3.96;86.17
56568;BME280;42456;49.956;20.004;2022-11-11T01:26:25;99769.45;;;3.93;86.21
56568;BME280;42456;49.956;20.004;2022-11-11T01:28:54;99769.70;;;3.92;86.18
56568;BME280;42456;49.956;20.004;2022-11-11T01:31:22;99769.64;;;3.86;85.96
56568;BME280;42456;49.956;20.004;2022-11-11T01:33:49;99765.33;;;3.83;85.91
56568;BME280;42456;49.956;20.004;2022-11-11T01:36:21;99764.74;;;3.78;85.89
56568;BME280;42456;49.956;20.004;2022-11-11T01:38:52;99767.36;;;3.73;85.93
56568;BME280;42456;49.956;20.004;2022-11-11T01:41:22;99773.45;;;3.71;85.99
56568;BME280;42456;49.956;20.004;2022-11-11T01:46:51;99778.16;;;3.64;86.05
56568;BME280;42456;49.956;20.004;2022-11-11T01:49:31;99773.28;;;3.59;85.64
56568;BME280;42456;49.956;20.004;2022-11-11T01:52:16;99778.55;;;3.54;85.63
56568;BME280;42456;49.956;20.004;2022-11-11T01:57:52;99764.86;;;3.45;85.81
56568;BME280;42456;49.956;20.004;2022-11-11T02:00:26;99773.33;;;3.42;85.87
56568;BME280;42456;49.956;20.004;2022-11-11T02:02:58;99775.69;;;3.39;86.00
56568;BME280;42456;49.956;20.004;2022-11-11T02:05:27;99779.37;;;3.38;86.04
56568;BME280;42456;49.956;20.004;2022-11-11T02:08:17;99780.69;;;3.35;85.96
56568;BME280;42456;49.956;20.004;2022-11-11T02:10:43;99792.08;;;3.33;86.00
56568;BME280;42456;49.956;20.004;2022-11-11T02:13:11;99782.23;;;3.31;86.04
56568;BME280;42456;49.956;20.004;2022-11-11T02:15:52;99785.98;;;3.33;86.17
56568;BME280;42456;49.956;20.004;2022-11-11T02:18:18;99788.91;;;3.34;86.39
56568;BME280;42456;49.956;20.004;2022-11-11T02:20:45;99782.04;;;3.38;86.53
56568;BME280;42456;49.956;20.004;2022-11-11T02:23:27;99776.53;;;3.42;86.58
56568;BME280;42456;49.956;20.004;2022-11-11T02:26:00;99774.73;;;3.47;86.64
56568;BME280;42456;49.956;20.004;2022-11-11T02:28:28;99778.25;;;3.53;86.64
56568;BME280;42456;49.956;20.004;2022-11-11T02:30:56;99786.28;;;3.55;86.92
56568;BME280;42456;49.956;20.004;2022-11-11T02:33:23;99791.14;;;3.61;87.08
56568;BME280;42456;49.956;20.004;2022-11-11T02:35:52;99795.15;;;3.63;86.89
56568;BME280;42456;49.956;20.004;2022-11-11T02:38:24;99799.69;;;3.63;86.59
56568;BME280;42456;49.956;20.004;2022-11-11T02:40:51;99805.01;;;3.63;86.36
56568;BME280;42456;49.956;20.004;2022-11-11T02:43:31;99796.48;;;3.63;86.73
56568;BME280;42456;49.956;20.004;2022-11-11T02:46:00;99807.17;;;3.66;86.96
56568;BME280;42456;49.956;20.004;2022-11-11T02:48:27;99805.35;;;3.69;86.94
56568;BME280;42456;49.956;20.004;2022-11-11T02:50:54;99804.31;;;3.72;86.94
56568;BME280;42456;49.956;20.004;2022-11-11T02:53:21;99805.70;;;3.75;86.94
56568;BME280;42456;49.956;20.004;2022-11-11T02:55:48;99810.28;;;3.79;87.17
56568;BME280;42456;49.956;20.004;2022-11-11T02:58:15;99808.45;;;3.82;87.28
56568;BME280;42456;49.956;20.004;2022-11-11T03:00:42;99815.69;;;3.87;87.25
56568;BME280;42456;49.956;20.004;2022-11-11T03:03:09;99818.37;;;3.89;87.05
56568;BME280;42456;49.956;20.004;2022-11-11T03:05:35;99822.94;;;3.92;86.99
56568;BME280;42456;49.956;20.004;2022-11-11T03:08:02;99818.70;;;3.93;86.98
56568;BME280;42456;49.956;20.004;2022-11-11T03:10:28;99819.80;;;3.97;87.02
56568;BME280;42456;49.956;20.004;2022-11-11T03:12:55;99816.07;;;3.98;87.03
56568;BME280;42456;49.956;20.004;2022-11-11T03:15:22;99818.23;;;4.01;87.10
56568;BME280;42456;49.956;20.004;2022-11-11T03:17:48;99817.74;;;4.04;87.13
56568;BME280;42456;49.956;20.004;2022-11-11T03:20:19;99808.74;;;4.08;87.15
56568;BME280;42456;49.956;20.004;2022-11-11T03:23:10;99804.50;;;4.09;87.13
56568;BME280;42456;49.956;20.004;2022-11-11T03:25:44;99814.38;;;4.11;87.12
56568;BME280;42456;49.956;20.004;2022-11-11T03:28:13;99811.47;;;4.13;87.10
56568;BME280;42456;49.956;20.004;2022-11-11T03:30:45;99809.64;;;4.16;87.18
56568;BME280;42456;49.956;20.004;2022-11-11T03:33:15;99812.05;;;4.17;87.12
56568;BME280;42456;49.956;20.004;2022-11-11T03:35:42;99803.52;;;4.18;87.14
56568;BME280;42456;49.956;20.004;2022-11-11T03:38:11;99806.75;;;4.20;87.16
56568;BME280;42456;49.956;20.004;2022-11-11T03:40:42;99806.50;;;4.21;87.12
56568;BME280;42456;49.956;20.004;2022-11-11T03:43:10;99811.82;;;4.21;87.14
56568;BME280;42456;49.956;20.004;2022-11-11T03:45:37;99810.80;;;4.25;87.05
56568;BME280;42456;49.956;20.004;2022-11-11T03:48:04;99807.89;;;4.26;87.14
56568;BME280;42456;49.956;20.004;2022-11-11T03:50:31;99809.49;;;4.27;87.08
56568;BME280;42456;49.956;20.004;2022-11-11T03:52:58;99802.32;;;4.28;87.10
56568;BME280;42456;49.956;20.004;2022-11-11T03:55:25;99802.06;;;4.29;87.04
56568;BME280;42456;49.956;20.004;2022-11-11T03:57:51;99807.14;;;4.31;87.01
56568;BME280;42456;49.956;20.004;2022-11-11T04:00:20;99806.34;;;4.33;87.03
56568;BME280;42456;49.956;20.004;2022-11-11T04:02:48;99802.09;;;4.34;87.14
56568;BME280;42456;49.956;20.004;2022-11-11T04:05:29;99807.98;;;4.36;87.24
56568;BME280;42456;49.956;20.004;2022-11-11T04:08:14;99809.34;;;4.39;87.35
56568;BME280;42456;49.956;20.004;2022-11-11T04:11:06;99806.67;;;4.39;87.27
56568;BME280;42456;49.956;20.004;2022-11-11T04:13:39;99808.05;;;4.41;87.19
56568;BME280;42456;49.956;20.004;2022-11-11T04:16:20;99806.98;;;4.42;87.23
56568;BME280;42456;49.956;20.004;2022-11-11T04:18:47;99800.89;;;4.44;87.20
56568;BME280;42456;49.956;20.004;2022-11-11T04:21:27;99798.76;;;4.46;87.19
56568;BME280;42456;49.956;20.004;2022-11-11T04:24:19;99802.25;;;4.49;87.29
56568;BME280;42456;49.956;20.004;2022-11-11T04:26:59;99788.98;;;4.52;87.43
56568;BME280;42456;49.956;20.004;2022-11-11T04:29:26;99793.50;;;4.54;87.46
56568;BME280;42456;49.956;20.004;2022-11-11T04:31:58;99792.47;;;4.55;87.49
56568;BME280;42456;49.956;20.004;2022-11-11T04:34:47;99790.59;;;4.55;87.46
56568;BME280;42456;49.956;20.004;2022-11-11T04:37:16;99790.88;;;4.56;87.56
56568;BME280;42456;49.956;20.004;2022-11-11T04:39:43;99795.41;;;4.58;87.61
56568;BME280;42456;49.956;20.004;2022-11-11T04:42:23;99794.89;;;4.59;87.59
56568;BME280;42456;49.956;20.004;2022-11-11T04:44:50;99796.23;;;4.61;87.62
56568;BME280;42456;49.956;20.004;2022-11-11T04:47:30;99794.66;;;4.63;87.70
56568;BME280;42456;49.956;20.004;2022-11-11T04:49:57;99790.95;;;4.64;87.70
56568;BME280;42456;49.956;20.004;2022-11-11T04:52:23;99799.73;;;4.64;87.70
56568;BME280;42456;49.956;20.004;2022-11-11T04:54:59;99789.37;;;4.65;87.72
56568;BME280;42456;49.956;20.004;2022-11-11T04:57:41;99796.04;;;4.68;87.76
56568;BME280;42456;49.956;20.004;2022-11-11T05:00:10;99796.60;;;4.70;87.76
56568;BME280;42456;49.956;20.004;2022-11-11T05:02:40;99790.20;;;4.71;87.77
56568;BME280;42456;49.956;20.004;2022-11-11T05:05:21;99798.72;;;4.70;87.78
56568;BME280;42456;49.956;20.004;2022-11-11T05:07:47;99805.42;;;4.73;87.89
56568;BME280;42456;49.956;20.004;2022-11-11T05:10:28;99816.08;;;4.73;87.99
56568;BME280;42456;49.956;20.004;2022-11-11T05:12:54;99812.61;;;4.72;87.88
56568;BME280;42456;49.956;20.004;2022-11-11T05:15:22;99807.52;;;4.71;87.75
56568;BME280;42456;49.956;20.004;2022-11-11T05:18:02;99816.84;;;4.68;87.65
56568;BME280;42456;49.956;20.004;2022-11-11T05:20:47;99842.92;;;4.66;87.68
56568;BME280;42456;49.956;20.004;2022-11-11T05:23:28;99852.23;;;4.64;87.85
56568;BME280;42456;49.956;20.004;2022-11-11T05:25:56;99844.24;;;4.64;87.96
56568;BME280;42456;49.956;20.004;2022-11-11T05:28:22;99836.45;;;4.60;87.87
56568;BME280;42456;49.956;20.004;2022-11-11T05:30:49;99842.29;;;4.57;87.89
56568;BME280;42456;49.956;20.004;2022-11-11T05:33:15;99848.70;;;4.58;88.23
56568;BME280;42456;49.956;20.004;2022-11-11T05:35:41;99847.66;;;4.59;88.36
56568;BME280;42456;49.956;20.004;2022-11-11T05:38:08;99845.00;;;4.59;88.39
56568;BME280;42456;49.956;20.004;2022-11-11T05:40:48;99840.20;;;4.61;88.34
56568;BME280;42456;49.956;20.004;2022-11-11T05:43:14;99855.41;;;4.61;88.33
56568;BME280;42456;49.956;20.004;2022-11-11T05:45:41;99858.60;;;4.63;88.38
56568;BME280;42456;49.956;20.004;2022-11-11T05:48:07;99860.48;;;4.62;88.12
56568;BME280;42456;49.956;20.004;2022-11-11T05:50:34;99859.94;;;4.63;88.03
56568;BME280;42456;49.956;20.004;2022-11-11T05:53:02;99858.85;;;4.61;88.01
56568;BME280;42456;49.956;20.004;2022-11-11T05:55:29;99862.06;;;4.61;88.11
56568;BME280;42456;49.956;20.004;2022-11-11T05:57:55;99865.00;;;4.62;88.20
56568;BME280;42456;49.956;20.004;2022-11-11T06:00:21;99872.47;;;4.62;88.20
56568;BME280;42456;49.956;20.004;2022-11-11T06:02:48;99879.97;;;4.65;88.31
56568;BME280;42456;49.956;20.004;2022-11-11T06:05:14;99892.22;;;4.66;88.53
56568;BME280;42456;49.956;20.004;2022-11-11T06:07:40;99889.05;;;4.69;88.52
56568;BME280;42456;49.956;20.004;2022-11-11T06:10:08;99900.23;;;4.69;88.13
56568;BME280;42456;49.956;20.004;2022-11-11T06:12:48;99894.91;;;4.69;87.96
56568;BME280;42456;49.956;20.004;2022-11-11T06:15:28;99893.57;;;4.69;88.02
56568;BME280;42456;49.956;20.004;2022-11-11T06:17:55;99889.32;;;4.70;88.13
56568;BME280;42456;49.956;20.004;2022-11-11T06:20:21;99897.61;;;4.71;88.23
56568;BME280;42456;49.956;20.004;2022-11-11T06:22:48;99891.78;;;4.74;88.36
56568;BME280;42456;49.956;20.004;2022-11-11T06:25:26;99891.55;;;4.78;88.36
56568;BME280;42456;49.956;20.004;2022-11-11T06:28:07;99883.31;;;4.82;88.40
56568;BME280;42456;49.956;20.004;2022-11-11T06:30:34;99889.22;;;4.87;88.43
56568;BME280;42456;49.956;20.004;2022-11-11T06:33:00;99882.62;;;4.92;88.45
56568;BME280;42456;49.956;20.004;2022-11-11T06:35:27;99887.75;;;4.98;88.48
56568;BME280;42456;49.956;20.004;2022-11-11T06:37:53;99892.08;;;5.04;88.43
56568;BME280;42456;49.956;20.004;2022-11-11T06:40:19;99896.39;;;5.10;88.37
56568;BME280;42456;49.956;20.004;2022-11-11T06:42:46;99890.81;;;5.14;88.40
56568;BME280;42456;49.956;20.004;2022-11-11T06:45:12;99886.84;;;5.19;88.41
56568;BME280;42456;49.956;20.004;2022-11-11T06:47:38;99890.33;;;5.22;88.35
56568;BME280;42456;49.956;20.004;2022-11-11T06:50:05;99891.97;;;5.26;88.28
56568;BME280;42456;49.956;20.004;2022-11-11T06:52:32;99882.90;;;5.27;88.21
56568;BME280;42456;49.956;20.004;2022-11-11T06:54:58;99876.27;;;5.29;88.23
56568;BME280;42456;49.956;20.004;2022-11-11T06:57:25;99867.20;;;5.33;88.26
56568;BME280;42456;49.956;20.004;2022-11-11T06:59:52;99866.95;;;5.34;88.33
56568;BME280;42456;49.956;20.004;2022-11-11T07:02:18;99869.67;;;5.39;88.35
56568;BME280;42456;49.956;20.004;2022-11-11T07:04:44;99875.05;;;5.44;88.42
56568;BME280;42456;49.956;20.004;2022-11-11T07:07:11;99882.55;;;5.52;88.49
56568;BME280;42456;49.956;20.004;2022-11-11T07:09:37;99886.61;;;5.60;88.58
56568;BME280;42456;49.956;20.004;2022-11-11T07:12:03;99882.13;;;5.65;88.50
56568;BME280;42456;49.956;20.004;2022-11-11T07:14:31;99890.19;;;5.73;88.51
56568;BME280;42456;49.956;20.004;2022-11-11T07:16:57;99884.66;;;5.82;88.59
56568;BME280;42456;49.956;20.004;2022-11-11T07:19:24;99884.71;;;5.92;88.75
56568;BME280;42456;49.956;20.004;2022-11-11T07:21:50;99885.83;;;5.99;88.65
56568;BME280;42456;49.956;20.004;2022-11-11T07:24:16;99885.90;;;6.14;88.71
56568;BME280;42456;49.956;20.004;2022-11-11T07:26:43;99881.41;;;6.24;88.61
56568;BME280;42456;49.956;20.004;2022-11-11T07:29:09;99873.67;;;6.35;88.60
56568;BME280;42456;49.956;20.004;2022-11-11T07:31:37;99872.13;;;6.47;88.71
56568;BME280;42456;49.956;20.004;2022-11-11T07:34:03;99875.37;;;6.61;88.81
56568;BME280;42456;49.956;20.004;2022-11-11T07:36:29;99876.74;;;6.74;88.71
56568;BME280;42456;49.956;20.004;2022-11-11T07:38:56;99872.47;;;6.85;88.67
56568;BME280;42456;49.956;20.004;2022-11-11T07:41:22;99873.81;;;6.95;88.51
56568;BME280;42456;49.956;20.004;2022-11-11T07:43:48;99870.63;;;7.03;88.33
56568;BME280;42456;49.956;20.004;2022-11-11T07:46:15;99860.45;;;7.08;88.40
56568;BME280;42456;49.956;20.004;2022-11-11T07:48:41;99864.48;;;7.13;88.42
56568;BME280;42456;49.956;20.004;2022-11-11T07:51:08;99856.97;;;7.15;88.45
56568;BME280;42456;49.956;20.004;2022-11-11T07:53:34;99861.00;;;7.20;88.45
56568;BME280;42456;49.956;20.004;2022-11-11T07:56:00;99866.61;;;7.26;88.43
56568;BME280;42456;49.956;20.004;2022-11-11T07:58:27;99871.97;;;7.31;88.39
56568;BME280;42456;49.956;20.004;2022-11-11T08:00:54;99873.58;;;7.37;88.33
56568;BME280;42456;49.956;20.004;2022-11-11T08:03:20;99863.41;;;7.41;88.35
56568;BME280;42456;49.956;20.004;2022-11-11T08:05:47;99860.70;;;7.56;88.35
56568;BME280;42456;49.956;20.004;2022-11-11T08:08:14;99851.86;;;7.61;88.25
56568;BME280;42456;49.956;20.004;2022-11-11T08:10:40;99835.77;;;7.66;88.29
56568;BME280;42456;49.956;20.004;2022-11-11T08:13:09;99836.29;;;7.70;88.20
56568;BME280;42456;49.956;20.004;2022-11-11T08:15:50;99842.17;;;7.75;88.28
56568;BME280;42456;49.956;20.004;2022-11-11T08:18:17;99830.64;;;7.85;88.56
56568;BME280;42456;49.956;20.004;2022-11-11T08:20:43;99830.30;;;7.99;88.87
56568;BME280;42456;49.956;20.004;2022-11-11T08:23:09;99829.97;;;8.15;89.21
56568;BME280;42456;49.956;20.004;2022-11-11T08:25:36;99830.48;;;8.30;89.26
56568;BME280;42456;49.956;20.004;2022-11-11T08:28:04;99827.44;;;8.44;89.36
56568;BME280;42456;49.956;20.004;2022-11-11T08:30:31;99830.84;;;8.59;89.43
56568;BME280;42456;49.956;20.004;2022-11-11T08:33:05;99830.22;;;8.72;89.32
56568;BME280;42456;49.956;20.004;2022-11-11T08:35:31;99840.87;;;8.85;89.23
56568;BME280;42456;49.956;20.004;2022-11-11T08:38:01;99847.21;;;8.96;88.96
56568;BME280;42456;49.956;20.004;2022-11-11T08:40:27;99851.97;;;9.07;88.55
56568;BME280;42456;49.956;20.004;2022-11-11T08:42:57;99849.22;;;9.17;88.29
56568;BME280;42456;49.956;20.004;2022-11-11T08:45:26;99846.47;;;9.24;87.94
56568;BME280;42456;49.956;20.004;2022-11-11T08:47:53;99846.91;;;9.34;87.83
56568;BME280;42456;49.956;20.004;2022-11-11T08:50:19;99844.96;;;9.42;87.52
56568;BME280;42456;49.956;20.004;2022-11-11T08:52:47;99857.23;;;9.50;87.37
56568;BME280;42456;49.956;20.004;2022-11-11T08:55:15;99859.30;;;9.58;87.26
56568;BME280;42456;49.956;20.004;2022-11-11T08:57:41;99858.70;;;9.67;87.06
56568;BME280;42456;49.956;20.004;2022-11-11T09:00:09;99858.30;;;9.78;86.78
56568;BME280;42456;49.956;20.004;2022-11-11T09:02:37;99860.59;;;9.90;86.43
56568;BME280;42456;49.956;20.004;2022-11-11T09:05:04;99862.63;;;10.00;86.21
56568;BME280;42456;49.956;20.004;2022-11-11T09:07:31;99867.36;;;10.13;86.18
56568;BME280;42456;49.956;20.004;2022-11-11T09:09:58;99868.81;;;10.27;85.61
56568;BME280;42456;49.956;20.004;2022-11-11T09:12:24;99860.80;;;10.40;85.37
56568;BME280;42456;49.956;20.004;2022-11-11T09:14:50;99865.98;;;10.55;84.89
56568;BME280;42456;49.956;20.004;2022-11-11T09:17:17;99859.03;;;10.73;84.74
56568;BME280;42456;49.956;20.004;2022-11-11T09:19:43;99856.66;;;10.87;84.58
56568;BME280;42456;49.956;20.004;2022-11-11T09:22:09;99842.72;;;11.01;84.20
56568;BME280;42456;49.956;20.004;2022-11-11T09:24:36;99837.92;;;11.14;83.80
56568;BME280;42456;49.956;20.004;2022-11-11T09:27:02;99831.53;;;11.26;83.34
56568;BME280;42456;49.956;20.004;2022-11-11T09:29:28;99837.20;;;11.41;83.31
56568;BME280;42456;49.956;20.004;2022-11-11T09:31:55;99825.67;;;11.54;82.59
56568;BME280;42456;49.956;20.004;2022-11-11T09:34:21;99835.18;;;11.65;81.64
56568;BME280;42456;49.956;20.004;2022-11-11T09:36:48;99840.13;;;11.74;81.01
56568;BME280;42456;49.956;20.004;2022-11-11T09:39:15;99849.64;;;11.85;80.55
56568;BME280;42456;49.956;20.004;2022-11-11T09:50:21;99853.00;;;12.20;78.98
56568;BME280;42456;49.956;20.004;2022-11-11T09:53:02;99847.24;;;12.24;77.94
56568;BME280;42456;49.956;20.004;2022-11-11T09:55:44;99847.48;;;12.25;77.41
56568;BME280;42456;49.956;20.004;2022-11-11T09:58:16;99860.19;;;12.25;76.58
56568;BME280;42456;49.956;20.004;2022-11-11T10:01:00;99860.73;;;12.24;76.55
56568;BME280;42456;49.956;20.004;2022-11-11T10:03:28;99855.09;;;12.23;76.18
56568;BME280;42456;49.956;20.004;2022-11-11T10:08:50;99842.15;;;12.23;75.57
56568;BME280;42456;49.956;20.004;2022-11-11T10:14:19;99859.74;;;12.20;75.24
56568;BME280;42456;49.956;20.004;2022-11-11T10:22:31;99861.78;;;12.12;75.08
56568;BME280;42456;49.956;20.004;2022-11-11T10:27:47;99849.70;;;12.23;74.91
56568;BME280;42456;49.956;20.004;2022-11-11T10:30:27;99850.23;;;12.36;74.93
56568;BME280;42456;49.956;20.004;2022-11-11T10:33:04;99842.17;;;12.47;74.72
56568;BME280;42456;49.956;20.004;2022-11-11T10:35:46;99846.73;;;12.60;74.95
56568;BME280;42456;49.956;20.004;2022-11-11T10:38:19;99844.72;;;12.66;74.23
56568;BME280;42456;49.956;20.004;2022-11-11T10:41:04;99844.41;;;12.67;73.84
56568;BME280;42456;49.956;20.004;2022-11-11T10:43:32;99841.23;;;12.65;73.46
56568;BME280;42456;49.956;20.004;2022-11-11T10:46:43;99840.42;;;12.65;72.60
56568;BME280;42456;49.956;20.004;2022-11-11T10:49:01;99839.14;;;12.73;72.12
56568;BME280;42456;49.956;20.004;2022-11-11T10:51:35;99839.14;;;12.73;72.12
56568;BME280;42456;49.956;20.004;2022-11-11T10:54:15;99843.02;;;12.81;71.99
56568;BME280;42456;49.956;20.004;2022-11-11T10:56:59;99839.91;;;12.87;72.01
56568;BME280;42456;49.956;20.004;2022-11-11T10:59:41;99840.78;;;12.96;72.05
56568;BME280;42456;49.956;20.004;2022-11-11T11:02:27;99842.72;;;13.07;71.78
56568;BME280;42456;49.956;20.004;2022-11-11T11:05:08;99836.56;;;13.15;71.53
56568;BME280;42456;49.956;20.004;2022-11-11T11:07:43;99836.83;;;13.16;71.38
56568;BME280;42456;49.956;20.004;2022-11-11T11:10:13;99824.36;;;13.17;71.57
56568;BME280;42456;49.956;20.004;2022-11-11T11:15:27;99810.40;;;13.24;71.11
56568;BME280;42456;49.956;20.004;2022-11-11T11:18:04;99814.99;;;13.35;71.17
56568;BME280;42456;49.956;20.004;2022-11-11T11:20:33;99801.28;;;13.42;70.41
56568;BME280;42456;49.956;20.004;2022-11-11T11:22:59;99792.98;;;13.50;69.99
56568;BME280;42456;49.956;20.004;2022-11-11T11:25:28;99796.52;;;13.59;69.84
56568;BME280;42456;49.956;20.004;2022-11-11T11:28:09;99794.81;;;13.63;69.24
56568;BME280;42456;49.956;20.004;2022-11-11T11:30:37;99799.64;;;13.63;69.07
56568;BME280;42456;49.956;20.004;2022-11-11T11:33:07;99799.59;;;13.66;68.48
56568;BME280;42456;49.956;20.004;2022-11-11T11:38:07;99801.62;;;13.80;68.59
56568;BME280;42456;49.956;20.004;2022-11-11T11:43:37;99798.67;;;13.98;68.35
56568;BME280;42456;49.956;20.004;2022-11-11T11:46:13;99786.70;;;14.10;68.82
56568;BME280;42456;49.956;20.004;2022-11-11T11:51:52;99761.92;;;14.34;68.37
56568;BME280;42456;49.956;20.004;2022-11-11T11:57:42;99773.09;;;14.58;67.54
56568;BME280;42456;49.956;20.004;2022-11-11T12:00:15;99787.92;;;14.60;67.45
56568;BME280;42456;49.956;20.004;2022-11-11T12:03:07;99789.50;;;14.61;67.66
56568;BME280;42456;49.956;20.004;2022-11-11T12:11:36;99800.27;;;14.72;66.42
56568;BME280;42456;49.956;20.004;2022-11-11T12:17:02;99798.34;;;14.73;65.84
56568;BME280;42456;49.956;20.004;2022-11-11T12:19:56;99798.91;;;14.72;65.72
56568;BME280;42456;49.956;20.004;2022-11-11T12:22:35;99797.39;;;14.69;65.78
56568;BME280;42456;49.956;20.004;2022-11-11T12:30:24;99790.86;;;14.61;66.42
56568;BME280;42456;49.956;20.004;2022-11-11T12:44:07;99767.11;;;14.41;66.44
56568;BME280;42456;49.956;20.004;2022-11-11T12:57:57;99782.22;;;14.25;66.29
56568;BME280;42456;49.956;20.004;2022-11-11T13:00:38;99773.44;;;14.20;66.35
56568;BME280;42456;49.956;20.004;2022-11-11T13:08:51;99770.68;;;14.03;66.17
56568;BME280;42456;49.956;20.004;2022-11-11T13:11:42;99765.09;;;13.99;66.12
56568;BME280;42456;49.956;20.004;2022-11-11T13:17:08;99755.06;;;13.91;66.30
56568;BME280;42456;49.956;20.004;2022-11-11T13:22:27;99756.55;;;13.86;66.25
56568;BME280;42456;49.956;20.004;2022-11-11T13:24:55;99756.87;;;13.85;66.28
56568;BME280;42456;49.956;20.004;2022-11-11T13:32:50;99759.30;;;13.75;66.30
56568;BME280;42456;49.956;20.004;2022-11-11T13:35:29;99754.59;;;13.70;66.39
56568;BME280;42456;49.956;20.004;2022-11-11T13:37:54;99766.89;;;13.65;66.56
56568;BME280;42456;49.956;20.004;2022-11-11T13:40:43;99771.10;;;13.60;66.62
56568;BME280;42456;49.956;20.004;2022-11-11T13:43:17;99757.48;;;13.54;66.68
56568;BME280;42456;49.956;20.004;2022-11-11T13:45:52;99740.35;;;13.47;66.53
56568;BME280;42456;49.956;20.004;2022-11-11T13:48:23;99743.49;;;13.41;66.61
56568;BME280;42456;49.956;20.004;2022-11-11T13:54:00;99743.16;;;13.34;66.75
56568;BME280;42456;49.956;20.004;2022-11-11T13:56:36;99739.84;;;13.25;66.84
56568;BME280;42456;49.956;20.004;2022-11-11T13:59:02;99749.92;;;13.22;66.91
56568;BME280;42456;49.956;20.004;2022-11-11T14:01:34;99743.55;;;13.18;66.98
56568;BME280;42456;49.956;20.004;2022-11-11T14:04:09;99743.86;;;13.17;67.16
56568;BME280;42456;49.956;20.004;2022-11-11T14:06:56;99733.13;;;13.14;67.18
56568;BME280;42456;49.956;20.004;2022-11-11T14:12:32;99752.35;;;13.02;67.29
56568;BME280;42456;49.956;20.004;2022-11-11T14:15:04;99752.35;;;13.02;67.29
56568;BME280;42456;49.956;20.004;2022-11-11T14:17:33;99751.66;;;12.96;67.45
56568;BME280;42456;49.956;20.004;2022-11-11T14:25:46;99765.11;;;12.77;67.58
56568;BME280;42456;49.956;20.004;2022-11-11T14:28:27;99772.58;;;12.69;67.86
56568;BME280;42456;49.956;20.004;2022-11-11T14:31:23;99768.77;;;12.59;67.92
56568;BME280;42456;49.956;20.004;2022-11-11T14:36:56;99778.16;;;12.50;68.12
56568;BME280;42456;49.956;20.004;2022-11-11T14:42:04;99789.32;;;12.33;68.45
56568;BME280;42456;49.956;20.004;2022-11-11T14:49:50;99794.20;;;12.20;68.44
56568;BME280;42456;49.956;20.004;2022-11-11T14:55:14;99791.28;;;12.05;68.75
56568;BME280;42456;49.956;20.004;2022-11-11T14:57:50;99788.73;;;11.98;68.85
56568;BME280;42456;49.956;20.004;2022-11-11T15:00:24;99790.78;;;11.90;68.96
56568;BME280;42456;49.956;20.004;2022-11-11T15:03:10;99791.23;;;11.81;69.03
56568;BME280;42456;49.956;20.004;2022-11-11T15:05:58;99793.83;;;11.72;69.15
56568;BME280;42456;49.956;20.004;2022-11-11T15:11:32;99789.02;;;11.53;69.45
56568;BME280;42456;49.956;20.004;2022-11-11T15:23:01;99789.81;;;11.10;69.84
56568;BME280;42456;49.956;20.004;2022-11-11T15:25:41;99788.42;;;10.97;70.09
56568;BME280;42456;49.956;20.004;2022-11-11T15:33:52;99798.96;;;10.59;70.53
56568;BME280;42456;49.956;20.004;2022-11-11T15:39:34;99787.72;;;10.36;70.85
56568;BME280;42456;49.956;20.004;2022-11-11T15:45:13;99792.05;;;10.16;71.43